Time;durP1;ratioP1;P1;durP2;ratioP2;P2;SDS_P1;SDS_P2;PMS_P1;PMS_P2;Temp;Humidity;BMP_temperature;BMP_pressure;BME280_temperature;BME280_humidity;BME280_pressure;Samples;Min_cycle;Max_cycle;Signal;HPM_P1;HPM_P2
2023/07/05 00:02:22;;;;;;;3.23;2.40;;;;;;;;;;6219069;23;20405;-88
2023/07/05 00:04:48;;;;;;;4.03;2.40;;;;;;;;;;6223824;23;20389;-88
2023/07/05 00:07:14;;;;;;;3.33;2.30;;;;;;;;;;6221893;23;20386;-89
2023/07/05 00:09:40;;;;;;;4.13;2.53;;;;;;;;;;6223312;23;20465;-88
2023/07/05 00:12:06;;;;;;;4.00;2.40;;;;;;;;;;6221717;23;20378;-89
2023/07/05 00:14:32;;;;;;;3.00;2.30;;;;;;;;;;6223796;23;20552;-88
2023/07/05 00:16:58;;;;;;;2.83;2.13;;;;;;;;;;6223105;23;20390;-89
2023/07/05 00:19:24;;;;;;;4.70;2.20;;;;;;;;;;6223256;23;20375;-88
2023/07/05 00:21:50;;;;;;;3.10;2.33;;;;;;;;;;6224909;23;20405;-88
2023/07/05 00:24:17;;;;;;;3.23;2.50;;;;;;;;;;6221114;23;20382;-87
2023/07/05 00:26:43;;;;;;;3.73;2.47;;;;;;;;;;6247326;23;20370;-88
2023/07/05 00:29:09;;;;;;;3.20;2.37;;;;;;;;;;6222074;23;20378;-88
2023/07/05 00:31:35;;;;;;;7.13;2.50;;;;;;;;;;6224583;23;20381;-88
2023/07/05 00:34:00;;;;;;;4.53;2.80;;;;;;;;;;6220285;23;20417;-88
2023/07/05 00:36:26;;;;;;;3.50;2.40;;;;;;;;;;6249270;23;20694;-88
2023/07/05 00:38:53;;;;;;;6.40;2.97;;;;;;;;;;6222634;23;20398;-89
2023/07/05 00:41:20;;;;;;;3.90;2.50;;;;;;;;;;6222685;23;20374;-88
2023/07/05 00:43:47;;;;;;;3.53;2.40;;;;;;;;;;6221496;23;20382;-88
2023/07/05 00:46:15;;;;;;;4.50;2.27;;;;;;;;;;6224687;23;20746;-89
2023/07/05 00:48:47;;;;;;;5.47;2.57;;;;;;;;;;6220890;23;20885;-89
2023/07/05 00:51:17;;;;;;;3.37;2.87;;;;;;;;;;6224892;23;20420;-89
2023/07/05 00:53:43;;;;;;;3.40;2.30;;;;;;;;;;6221408;23;20416;-89
2023/07/05 00:56:19;;;;;;;4.77;2.37;;;;;;;;;;6221400;23;20406;-89
2023/07/05 00:58:45;;;;;;;6.27;2.53;;;;;;;;;;6221243;23;20370;-89
2023/07/05 01:01:11;;;;;;;5.77;2.47;;;;;;;;;;6222006;23;20413;-90
2023/07/05 01:03:37;;;;;;;3.10;2.10;;;;;;;;;;6220989;23;20385;-89
2023/07/05 01:06:06;;;;;;;2.47;1.90;;;;;;;;;;6247103;23;20370;-89
2023/07/05 01:08:32;;;;;;;4.87;2.63;;;;;;;;;;6221320;23;20393;-88
2023/07/05 01:11:13;;;;;;;3.60;2.20;;;;;;;;;;6221572;23;20382;-88
2023/07/05 01:13:52;;;;;;;3.13;2.30;;;;;;;;;;6246584;23;20412;-88
2023/07/05 01:16:24;;;;;;;5.80;2.73;;;;;;;;;;6223584;23;20371;-88
2023/07/05 01:18:50;;;;;;;5.10;2.13;;;;;;;;;;6221840;23;20351;-88
2023/07/05 01:21:28;;;;;;;2.90;2.10;;;;;;;;;;6223677;23;20374;-88
2023/07/05 01:23:57;;;;;;;3.50;1.70;;;;;;;;;;6221533;23;20420;-90
2023/07/05 01:26:25;;;;;;;3.17;2.03;;;;;;;;;;6221482;23;20409;-88
2023/07/05 01:29:10;;;;;;;4.67;1.97;;;;;;;;;;6221757;23;20435;-89
2023/07/05 01:31:48;;;;;;;4.27;2.13;;;;;;;;;;6220964;23;20443;-88
2023/07/05 01:34:17;;;;;;;6.03;2.27;;;;;;;;;;6222400;23;20516;-88
2023/07/05 01:36:43;;;;;;;2.80;1.90;;;;;;;;;;6214138;23;20802;-88
2023/07/05 01:39:09;;;;;;;3.30;2.00;;;;;;;;;;6164015;23;20875;-88
2023/07/05 01:41:35;;;;;;;2.43;1.97;;;;;;;;;;6126907;23;20481;-88
2023/07/05 01:44:01;;;;;;;4.10;2.47;;;;;;;;;;6132232;23;20396;-88
2023/07/05 01:46:27;;;;;;;4.07;2.00;;;;;;;;;;6128657;23;20407;-89
2023/07/05 01:48:53;;;;;;;4.53;2.03;;;;;;;;;;6156324;23;20385;-89
2023/07/05 01:51:19;;;;;;;3.17;2.20;;;;;;;;;;6153448;23;20495;-88
2023/07/05 01:53:54;;;;;;;6.00;2.23;;;;;;;;;;6153419;23;20185;-89
2023/07/05 01:56:21;;;;;;;2.60;1.93;;;;;;;;;;6130164;23;20385;-89
2023/07/05 01:58:47;;;;;;;4.67;2.10;;;;;;;;;;6130677;23;20671;-89
2023/07/05 02:01:14;;;;;;;3.40;2.10;;;;;;;;;;6129750;23;20427;-88
2023/07/05 02:03:41;;;;;;;8.93;2.03;;;;;;;;;;6131681;23;20385;-89
2023/07/05 02:06:08;;;;;;;3.70;2.27;;;;;;;;;;6128993;23;20389;-88
2023/07/05 02:08:37;;;;;;;4.83;2.23;;;;;;;;;;6129183;23;20384;-89
2023/07/05 02:11:03;;;;;;;2.90;1.93;;;;;;;;;;6126759;23;20416;-90
2023/07/05 02:13:29;;;;;;;3.70;1.97;;;;;;;;;;6187228;23;20422;-88
2023/07/05 02:15:55;;;;;;;3.60;2.20;;;;;;;;;;6219263;23;20374;-88
2023/07/05 02:18:21;;;;;;;3.30;2.20;;;;;;;;;;6222219;23;20385;-89
2023/07/05 02:20:47;;;;;;;2.33;1.87;;;;;;;;;;6220384;23;20738;-88
2023/07/05 02:23:13;;;;;;;2.70;1.70;;;;;;;;;;6225545;23;20389;-89
2023/07/05 02:25:39;;;;;;;2.50;1.77;;;;;;;;;;6224722;23;20865;-88
2023/07/05 02:28:06;;;;;;;2.73;1.70;;;;;;;;;;6222935;23;20473;-89
2023/07/05 02:30:34;;;;;;;4.50;1.90;;;;;;;;;;6223718;23;20870;-88
2023/07/05 02:33:00;;;;;;;4.70;2.80;;;;;;;;;;6225003;23;20464;-88
2023/07/05 02:35:26;;;;;;;3.83;2.47;;;;;;;;;;6223404;23;20382;-88
2023/07/05 02:37:52;;;;;;;3.10;2.00;;;;;;;;;;6223488;23;20374;-89
2023/07/05 02:40:18;;;;;;;2.97;2.10;;;;;;;;;;6225290;23;20378;-88
2023/07/05 02:42:45;;;;;;;4.00;1.93;;;;;;;;;;6225727;23;20457;-89
2023/07/05 02:45:11;;;;;;;2.50;2.00;;;;;;;;;;6225194;23;20441;-88
2023/07/05 02:47:37;;;;;;;3.57;2.40;;;;;;;;;;6225636;23;20483;-88
2023/07/05 02:50:03;;;;;;;2.00;1.60;;;;;;;;;;6199730;23;20370;-88
2023/07/05 02:52:29;;;;;;;3.50;2.10;;;;;;;;;;6223101;23;20413;-89
2023/07/05 02:54:55;;;;;;;3.43;2.03;;;;;;;;;;6224793;23;20432;-89
2023/07/05 02:57:21;;;;;;;6.13;2.07;;;;;;;;;;6224147;23;20381;-88
2023/07/05 02:59:47;;;;;;;3.40;1.97;;;;;;;;;;6249175;23;20416;-89
2023/07/05 03:02:13;;;;;;;3.20;2.40;;;;;;;;;;6223125;23;20838;-88
2023/07/05 03:04:39;;;;;;;2.43;1.83;;;;;;;;;;6225985;23;20428;-88
2023/07/05 03:07:05;;;;;;;4.10;2.20;;;;;;;;;;6223936;23;20374;-87
2023/07/05 03:09:31;;;;;;;3.57;2.10;;;;;;;;;;6249385;23;20370;-88
2023/07/05 03:11:57;;;;;;;4.00;2.30;;;;;;;;;;6249088;23;20362;-88
2023/07/05 03:14:23;;;;;;;3.17;2.50;;;;;;;;;;6226587;23;20961;-89
2023/07/05 03:16:49;;;;;;;6.73;3.00;;;;;;;;;;6224818;23;20388;-92
2023/07/05 03:19:15;;;;;;;4.20;2.30;;;;;;;;;;6225866;23;20433;-88
2023/07/05 03:21:41;;;;;;;5.93;3.90;;;;;;;;;;6224916;23;20379;-89
2023/07/05 03:24:07;;;;;;;4.87;3.50;;;;;;;;;;6252472;23;20371;-89
2023/07/05 03:26:33;;;;;;;5.73;3.50;;;;;;;;;;6224924;23;20846;-89
2023/07/05 03:28:59;;;;;;;5.30;3.50;;;;;;;;;;6228138;23;20385;-89
2023/07/05 03:31:25;;;;;;;5.37;3.27;;;;;;;;;;6250021;23;20397;-88
2023/07/05 03:33:53;;;;;;;4.60;3.30;;;;;;;;;;6227160;23;20437;-89
2023/07/05 03:36:19;;;;;;;2.43;1.50;;;;;;;;;;6252434;23;20358;-89
2023/07/05 03:38:45;;;;;;;5.37;2.20;;;;;;;;;;6226130;23;20412;-89
2023/07/05 03:41:16;;;;;;;2.50;2.10;;;;;;;;;;6225838;23;20382;-90
2023/07/05 03:43:43;;;;;;;2.30;1.80;;;;;;;;;;6228754;23;20466;-89
2023/07/05 03:46:10;;;;;;;3.53;2.13;;;;;;;;;;6224585;23;20370;-88
2023/07/05 03:48:40;;;;;;;3.90;2.40;;;;;;;;;;6249789;23;20871;-88
2023/07/05 03:51:06;;;;;;;2.40;1.83;;;;;;;;;;6223827;23;21000;-89
2023/07/05 03:53:35;;;;;;;2.67;1.83;;;;;;;;;;6227249;23;20452;-89
2023/07/05 03:56:01;;;;;;;3.13;2.60;;;;;;;;;;6224881;23;20380;-89
2023/07/05 03:58:28;;;;;;;3.13;2.00;;;;;;;;;;6225328;23;20383;-89
2023/07/05 04:00:53;;;;;;;3.93;2.73;;;;;;;;;;6222845;23;20461;-89
2023/07/05 04:03:19;;;;;;;2.47;1.90;;;;;;;;;;6228100;23;20406;-88
2023/07/05 04:05:46;;;;;;;4.30;2.03;;;;;;;;;;6225059;23;20406;-89
2023/07/05 04:08:12;;;;;;;3.37;1.97;;;;;;;;;;6251270;23;20397;-89
2023/07/05 04:10:38;;;;;;;2.90;1.83;;;;;;;;;;6224944;23;20417;-89
2023/07/05 04:13:04;;;;;;;2.83;1.97;;;;;;;;;;6224051;23;20426;-89
2023/07/05 04:15:30;;;;;;;4.27;1.90;;;;;;;;;;6224365;23;20405;-89
2023/07/05 04:17:56;;;;;;;2.87;1.80;;;;;;;;;;6224156;23;20382;-88
2023/07/05 04:20:22;;;;;;;6.10;3.00;;;;;;;;;;6224294;23;20421;-89
2023/07/05 04:22:49;;;;;;;2.53;1.70;;;;;;;;;;6224600;23;20382;-88
2023/07/05 04:25:15;;;;;;;3.60;2.10;;;;;;;;;;6225164;23;20386;-89
2023/07/05 04:27:41;;;;;;;3.63;1.97;;;;;;;;;;6224397;23;20358;-89
2023/07/05 04:30:07;;;;;;;3.60;2.10;;;;;;;;;;6221874;23;20368;-89
2023/07/05 04:32:33;;;;;;;3.67;1.80;;;;;;;;;;6222849;23;20412;-89
2023/07/05 04:34:59;;;;;;;3.00;1.93;;;;;;;;;;6223144;23;20418;-86
2023/07/05 04:37:25;;;;;;;3.17;1.70;;;;;;;;;;6210333;22;21379;-90
2023/07/05 04:39:51;;;;;;;2.83;1.77;;;;;;;;;;6197643;23;20390;-91
2023/07/05 04:42:17;;;;;;;3.10;1.90;;;;;;;;;;6199896;23;20428;-90
2023/07/05 04:44:43;;;;;;;3.10;1.90;;;;;;;;;;6227014;23;20354;-91
2023/07/05 04:47:09;;;;;;;2.57;1.67;;;;;;;;;;6199370;23;21042;-90
2023/07/05 04:49:35;;;;;;;2.27;1.60;;;;;;;;;;6202375;23;20480;-90
2023/07/05 04:52:01;;;;;;;3.17;1.90;;;;;;;;;;6199075;23;20378;-90
2023/07/05 04:54:27;;;;;;;3.00;1.80;;;;;;;;;;6199904;23;20546;-91
2023/07/05 04:56:53;;;;;;;5.53;2.17;;;;;;;;;;6197698;23;20378;-91
2023/07/05 04:59:19;;;;;;;6.03;2.13;;;;;;;;;;6199224;23;20373;-90
2023/07/05 05:01:46;;;;;;;3.93;1.80;;;;;;;;;;6198785;23;20445;-89
2023/07/05 05:04:12;;;;;;;3.70;1.60;;;;;;;;;;6199367;23;20390;-90
2023/07/05 05:06:37;;;;;;;2.73;1.80;;;;;;;;;;6198429;23;21062;-90
2023/07/05 05:09:03;;;;;;;2.30;1.73;;;;;;;;;;6202624;23;20367;-91
2023/07/05 05:11:30;;;;;;;5.70;2.23;;;;;;;;;;6200389;22;20389;-91
2023/07/05 05:13:57;;;;;;;3.73;1.83;;;;;;;;;;6201068;23;20520;-90
2023/07/05 05:16:23;;;;;;;2.20;1.57;;;;;;;;;;6198561;23;20390;-90
2023/07/05 05:18:50;;;;;;;2.10;1.70;;;;;;;;;;6202566;23;20385;-91
2023/07/05 05:21:16;;;;;;;2.70;1.80;;;;;;;;;;6225583;23;20464;-90
2023/07/05 05:23:42;;;;;;;2.83;1.70;;;;;;;;;;6202151;23;20378;-89
2023/07/05 05:26:08;;;;;;;5.23;1.67;;;;;;;;;;6229097;23;20916;-92
2023/07/05 05:28:34;;;;;;;3.33;1.60;;;;;;;;;;6203141;23;20382;-90
2023/07/05 05:31:04;;;;;;;3.57;1.90;;;;;;;;;;6199868;23;20367;-89
2023/07/05 05:33:30;;;;;;;3.50;1.70;;;;;;;;;;6200010;23;20738;-89
2023/07/05 05:35:56;;;;;;;3.10;2.60;;;;;;;;;;6201390;23;20381;-91
2023/07/05 05:38:22;;;;;;;2.67;2.10;;;;;;;;;;6199404;23;20394;-91
2023/07/05 05:40:50;;;;;;;2.37;1.60;;;;;;;;;;6197945;23;20386;-90
2023/07/05 05:43:17;;;;;;;3.80;1.67;;;;;;;;;;6203349;23;20428;-90
2023/07/05 05:45:43;;;;;;;2.50;1.80;;;;;;;;;;6200532;23;20385;-92
2023/07/05 05:48:09;;;;;;;2.47;2.07;;;;;;;;;;6201008;23;20386;-91
2023/07/05 05:50:35;;;;;;;4.10;1.63;;;;;;;;;;6200492;23;20965;-91
2023/07/05 05:53:02;;;;;;;2.90;1.83;;;;;;;;;;6200062;23;20382;-91
2023/07/05 05:55:28;;;;;;;2.00;1.57;;;;;;;;;;6198911;23;20946;-91
2023/07/05 05:57:54;;;;;;;4.60;2.00;;;;;;;;;;6202522;23;20401;-90
2023/07/05 06:00:20;;;;;;;2.30;1.80;;;;;;;;;;6200899;23;20377;-90
2023/07/05 06:02:46;;;;;;;2.60;1.90;;;;;;;;;;6203148;23;20378;-90
2023/07/05 06:05:12;;;;;;;3.20;2.10;;;;;;;;;;6198876;23;20797;-91
2023/07/05 06:07:38;;;;;;;2.20;1.60;;;;;;;;;;6202758;23;20402;-93
2023/07/05 06:10:04;;;;;;;2.87;2.17;;;;;;;;;;6201869;23;20377;-91
2023/07/05 06:12:30;;;;;;;3.57;1.97;;;;;;;;;;6198827;23;20907;-93
2023/07/05 06:14:57;;;;;;;4.50;2.70;;;;;;;;;;6205520;23;20481;-92
2023/07/05 06:17:23;;;;;;;3.80;2.47;;;;;;;;;;6203615;23;20780;-93
2023/07/05 06:19:49;;;;;;;6.80;1.90;;;;;;;;;;6202662;23;20397;-93
2023/07/05 06:22:15;;;;;;;3.13;2.30;;;;;;;;;;6201265;23;20382;-92
2023/07/05 06:24:43;;;;;;;3.53;2.07;;;;;;;;;;6205336;23;20887;-94
2023/07/05 06:27:09;;;;;;;4.60;2.33;;;;;;;;;;6202538;23;20386;-93
2023/07/05 06:29:35;;;;;;;3.70;2.20;;;;;;;;;;6204757;23;20386;-93
2023/07/05 06:32:01;;;;;;;3.20;2.20;;;;;;;;;;6202418;23;20499;-93
2023/07/05 06:34:27;;;;;;;2.93;2.57;;;;;;;;;;6201967;23;20792;-94
2023/07/05 06:39:29;;;;;;;4.60;2.43;;;;;;;;;;6245174;22;20481;-93
2023/07/05 06:41:55;;;;;;;4.00;2.57;;;;;;;;;;6175875;22;20427;-94
2023/07/05 06:44:22;;;;;;;6.43;2.50;;;;;;;;;;6177456;23;20382;-94
2023/07/05 06:46:47;;;;;;;5.90;2.90;;;;;;;;;;6202331;23;20975;-90
2023/07/05 06:49:14;;;;;;;4.37;2.23;;;;;;;;;;6197325;23;20390;-90
2023/07/05 06:51:40;;;;;;;3.73;2.20;;;;;;;;;;6196732;23;20454;-90
2023/07/05 06:54:06;;;;;;;3.10;2.20;;;;;;;;;;6200252;23;20471;-91
2023/07/05 06:56:32;;;;;;;5.40;3.23;;;;;;;;;;6202199;23;20394;-91
2023/07/05 06:58:58;;;;;;;5.30;2.90;;;;;;;;;;6200870;23;20397;-92
2023/07/05 07:01:24;;;;;;;4.27;2.27;;;;;;;;;;6202315;23;20408;-92
2023/07/05 07:03:50;;;;;;;4.57;2.43;;;;;;;;;;6201136;23;20780;-93
2023/07/05 07:06:21;;;;;;;7.40;2.90;;;;;;;;;;6204954;23;21167;-93
2023/07/05 07:08:47;;;;;;;3.63;2.77;;;;;;;;;;6201419;23;20377;-92
2023/07/05 07:11:13;;;;;;;3.70;2.90;;;;;;;;;;6201554;23;20433;-92
2023/07/05 07:13:39;;;;;;;3.90;2.17;;;;;;;;;;6201906;23;20461;-92
2023/07/05 07:16:10;;;;;;;4.00;2.50;;;;;;;;;;6202757;23;20379;-92
2023/07/05 07:18:37;;;;;;;4.50;2.53;;;;;;;;;;6200234;23;20403;-92
2023/07/05 07:21:03;;;;;;;4.67;2.60;;;;;;;;;;6202526;23;20409;-92
2023/07/05 07:23:29;;;;;;;3.60;2.03;;;;;;;;;;6202026;23;20378;-93
2023/07/05 07:26:22;;;;;;;3.20;2.40;;;;;;;;;;6202596;23;20371;-93
2023/07/05 07:28:48;;;;;;;3.70;2.23;;;;;;;;;;6221194;23;20405;-93
2023/07/05 07:31:16;;;;;;;2.53;2.10;;;;;;;;;;6202878;23;20378;-91
2023/07/05 07:33:42;;;;;;;2.93;1.83;;;;;;;;;;6197960;23;20414;-91
2023/07/05 07:36:12;;;;;;;3.20;2.13;;;;;;;;;;6201774;23;20465;-92
2023/07/05 07:38:39;;;;;;;2.50;1.90;;;;;;;;;;6202035;23;20393;-91
2023/07/05 07:41:05;;;;;;;3.50;1.47;;;;;;;;;;6202898;23;20386;-92
2023/07/05 07:43:34;;;;;;;1.80;1.37;;;;;;;;;;6198878;22;20385;-95
2023/07/05 07:46:00;;;;;;;2.03;1.53;;;;;;;;;;6254411;23;21013;-92
2023/07/05 07:48:26;;;;;;;4.47;1.70;;;;;;;;;;6225093;23;20699;-92
2023/07/05 07:50:52;;;;;;;2.60;1.80;;;;;;;;;;6223885;23;20864;-92
2023/07/05 07:53:18;;;;;;;2.23;1.50;;;;;;;;;;6227871;23;20421;-90
2023/07/05 07:55:44;;;;;;;2.40;1.67;;;;;;;;;;6228130;23;20374;-91
2023/07/05 07:58:10;;;;;;;2.80;1.80;;;;;;;;;;6227270;23;21093;-92
2023/07/05 08:00:36;;;;;;;2.30;1.57;;;;;;;;;;6225727;23;20377;-92
2023/07/05 08:03:02;;;;;;;2.10;1.50;;;;;;;;;;6226854;23;21063;-92
2023/07/05 08:05:28;;;;;;;3.03;1.50;;;;;;;;;;6227224;23;20370;-91
2023/07/05 08:07:54;;;;;;;2.10;1.40;;;;;;;;;;6228189;23;20382;-92
2023/07/05 08:10:20;;;;;;;3.03;1.37;;;;;;;;;;6227389;23;20370;-91
2023/07/05 08:12:46;;;;;;;4.23;1.30;;;;;;;;;;6227720;23;20461;-92
2023/07/05 08:15:12;;;;;;;4.27;1.97;;;;;;;;;;6226472;23;20536;-91
2023/07/05 08:17:39;;;;;;;2.47;1.57;;;;;;;;;;6228729;23;20456;-93
2023/07/05 08:20:05;;;;;;;2.00;1.40;;;;;;;;;;6226585;23;21002;-92
2023/07/05 08:22:32;;;;;;;3.20;1.50;;;;;;;;;;6226399;23;20421;-92
2023/07/05 08:24:58;;;;;;;2.90;1.23;;;;;;;;;;6226870;23;20393;-90
2023/07/05 08:27:24;;;;;;;3.43;2.33;;;;;;;;;;6228417;23;20379;-91
2023/07/05 08:29:50;;;;;;;3.97;1.90;;;;;;;;;;6225484;23;20406;-91
2023/07/05 08:32:18;;;;;;;2.13;1.57;;;;;;;;;;6225964;23;20440;-89
2023/07/05 08:34:45;;;;;;;2.63;1.47;;;;;;;;;;6223465;23;20418;-92
2023/07/05 08:37:11;;;;;;;2.27;1.63;;;;;;;;;;6228163;23;20481;-91
2023/07/05 08:39:37;;;;;;;3.53;2.60;;;;;;;;;;6226598;23;20382;-93
2023/07/05 08:42:07;;;;;;;2.40;1.43;;;;;;;;;;6229435;23;20386;-93
2023/07/05 08:44:40;;;;;;;2.60;1.30;;;;;;;;;;6228676;23;20436;-93
2023/07/05 08:47:06;;;;;;;3.53;1.83;;;;;;;;;;6135869;23;20977;-93
2023/07/05 08:49:33;;;;;;;2.00;1.60;;;;;;;;;;6135996;23;20392;-92
2023/07/05 08:52:00;;;;;;;2.20;1.40;;;;;;;;;;6111682;23;20408;-92
2023/07/05 08:54:34;;;;;;;3.67;1.80;;;;;;;;;;6110967;23;20763;-92
2023/07/05 08:57:10;;;;;;;2.33;1.80;;;;;;;;;;6113873;23;20704;-93
2023/07/05 08:59:42;;;;;;;2.63;1.87;;;;;;;;;;6113397;23;20381;-92
2023/07/05 09:02:12;;;;;;;2.70;1.90;;;;;;;;;;6110863;23;20404;-92
2023/07/05 09:04:39;;;;;;;3.40;2.20;;;;;;;;;;6111030;23;20393;-92
2023/07/05 09:07:10;;;;;;;2.50;1.67;;;;;;;;;;6110218;23;20460;-92
2023/07/05 09:09:50;;;;;;;3.30;1.93;;;;;;;;;;6111268;23;20433;-91
2023/07/05 09:12:22;;;;;;;4.40;1.67;;;;;;;;;;6111681;23;20470;-92
2023/07/05 09:14:48;;;;;;;3.77;2.20;;;;;;;;;;6114431;23;20416;-93
2023/07/05 09:17:14;;;;;;;4.03;2.23;;;;;;;;;;6159342;23;20381;-92
2023/07/05 09:19:48;;;;;;;3.97;2.90;;;;;;;;;;6230006;23;20382;-92
2023/07/05 09:22:15;;;;;;;2.43;2.07;;;;;;;;;;6231409;23;20382;-92
2023/07/05 09:24:41;;;;;;;3.30;2.10;;;;;;;;;;6228387;23;20394;-93
2023/07/05 09:27:18;;;;;;;2.67;1.97;;;;;;;;;;6232195;23;20374;-92
2023/07/05 09:29:50;;;;;;;4.43;2.57;;;;;;;;;;6239440;23;20374;-92
2023/07/05 09:32:21;;;;;;;3.50;2.07;;;;;;;;;;6230840;23;20448;-93
2023/07/05 09:34:51;;;;;;;5.77;2.80;;;;;;;;;;6231954;23;20429;-92
2023/07/05 09:37:20;;;;;;;3.00;2.50;;;;;;;;;;6230563;22;20425;-92
2023/07/05 09:39:50;;;;;;;5.30;2.70;;;;;;;;;;6229515;23;20417;-92
2023/07/05 09:42:18;;;;;;;2.70;2.20;;;;;;;;;;6226680;23;20379;-92
2023/07/05 09:44:44;;;;;;;3.30;2.47;;;;;;;;;;6230315;23;20860;-92
2023/07/05 09:47:11;;;;;;;3.13;1.97;;;;;;;;;;6229679;23;20394;-92
2023/07/05 09:49:37;;;;;;;3.97;2.80;;;;;;;;;;6229084;23;20385;-91
2023/07/05 09:52:07;;;;;;;6.37;2.63;;;;;;;;;;6226813;23;20405;-91
2023/07/05 09:54:33;;;;;;;3.63;2.50;;;;;;;;;;6225032;23;20805;-89
2023/07/05 09:57:04;;;;;;;3.47;2.40;;;;;;;;;;6225331;23;20384;-89
2023/07/05 09:59:31;;;;;;;2.57;2.13;;;;;;;;;;6224291;23;20445;-91
2023/07/05 10:02:19;;;;;;;3.83;2.37;;;;;;;;;;6225248;23;20382;-89
2023/07/05 10:04:58;;;;;;;3.47;2.50;;;;;;;;;;6230015;23;20386;-90
2023/07/05 10:07:25;;;;;;;4.47;3.37;;;;;;;;;;6229127;23;20387;-90
2023/07/05 10:09:56;;;;;;;3.83;2.67;;;;;;;;;;6228306;23;20420;-90
2023/07/05 10:12:23;;;;;;;4.07;3.03;;;;;;;;;;6226508;23;20382;-91
2023/07/05 10:14:56;;;;;;;3.43;2.73;;;;;;;;;;6226698;23;20426;-90
2023/07/05 10:17:22;;;;;;;3.90;2.50;;;;;;;;;;6228377;23;20425;-91
2023/07/05 10:19:51;;;;;;;5.70;2.50;;;;;;;;;;6159665;23;20396;-88
2023/07/05 10:22:27;;;;;;;4.00;3.03;;;;;;;;;;6136271;23;20393;-89
2023/07/05 10:24:57;;;;;;;4.70;2.80;;;;;;;;;;6136276;23;20393;-91
2023/07/05 10:27:23;;;;;;;3.90;2.57;;;;;;;;;;6134285;23;20393;-90
2023/07/05 10:29:50;;;;;;;4.33;3.23;;;;;;;;;;6163283;23;20797;-92
2023/07/05 10:32:19;;;;;;;5.33;2.90;;;;;;;;;;6133757;23;20476;-90
2023/07/05 10:34:45;;;;;;;4.17;3.03;;;;;;;;;;6139505;23;20500;-89
2023/07/05 10:37:30;;;;;;;3.60;2.50;;;;;;;;;;6135900;23;20368;-89
2023/07/05 10:39:56;;;;;;;3.90;2.73;;;;;;;;;;6161778;23;20408;-89
2023/07/05 10:42:22;;;;;;;4.17;2.50;;;;;;;;;;6134532;23;20416;-91
2023/07/05 10:44:48;;;;;;;3.67;2.50;;;;;;;;;;6138993;23;20432;-91
2023/07/05 10:47:14;;;;;;;4.33;3.40;;;;;;;;;;6137284;23;20397;-90
2023/07/05 10:49:40;;;;;;;3.50;2.43;;;;;;;;;;6139966;23;20381;-91
2023/07/05 10:52:07;;;;;;;4.83;2.80;;;;;;;;;;6227002;23;20374;-91
2023/07/05 10:54:52;;;;;;;4.00;2.93;;;;;;;;;;6227760;23;20452;-92
2023/07/05 10:57:38;;;;;;;4.97;3.10;;;;;;;;;;6226764;23;20431;-91
2023/07/05 11:00:11;;;;;;;4.33;2.67;;;;;;;;;;6181121;23;20412;-92
2023/07/05 11:02:49;;;;;;;4.90;3.07;;;;;;;;;;6229148;23;20448;-91
2023/07/05 11:05:32;;;;;;;4.20;2.90;;;;;;;;;;6225790;23;20385;-91
2023/07/05 11:07:59;;;;;;;4.40;2.67;;;;;;;;;;6231647;23;20382;-92
2023/07/05 11:10:25;;;;;;;5.30;3.60;;;;;;;;;;6226911;23;20378;-93
2023/07/05 11:12:51;;;;;;;4.80;2.73;;;;;;;;;;6231079;23;20374;-93
2023/07/05 11:15:18;;;;;;;4.10;2.47;;;;;;;;;;6228033;23;20457;-91
2023/07/05 11:17:46;;;;;;;5.03;2.97;;;;;;;;;;6228847;23;20389;-91
2023/07/05 11:20:30;;;;;;;4.47;2.80;;;;;;;;;;6229296;23;20477;-91
2023/07/05 11:22:56;;;;;;;4.20;2.80;;;;;;;;;;6232581;23;20448;-90
2023/07/05 11:25:22;;;;;;;4.97;3.20;;;;;;;;;;6231424;23;20406;-91
2023/07/05 11:27:50;;;;;;;4.70;3.00;;;;;;;;;;6229183;23;20874;-91
2023/07/05 11:30:35;;;;;;;5.17;3.57;;;;;;;;;;6229452;23;20390;-91
2023/07/05 11:33:08;;;;;;;3.67;2.37;;;;;;;;;;6256623;23;20366;-90
2023/07/05 11:35:44;;;;;;;5.53;2.50;;;;;;;;;;6227940;23;20382;-90
2023/07/05 11:38:10;;;;;;;3.90;2.30;;;;;;;;;;6229309;23;20481;-91
2023/07/05 11:40:55;;;;;;;8.37;3.43;;;;;;;;;;6227406;23;20400;-89
2023/07/05 11:43:25;;;;;;;6.00;2.20;;;;;;;;;;6232637;23;20396;-91
2023/07/05 11:45:51;;;;;;;4.47;2.43;;;;;;;;;;6227655;23;20434;-92
2023/07/05 11:48:37;;;;;;;6.97;2.50;;;;;;;;;;6229768;23;20771;-88
2023/07/05 11:51:03;;;;;;;3.90;2.43;;;;;;;;;;6227310;23;20376;-90
2023/07/05 11:53:29;;;;;;;3.70;2.70;;;;;;;;;;6229866;23;20541;-91
2023/07/05 11:55:56;;;;;;;3.63;2.47;;;;;;;;;;6228404;23;20481;-91
2023/07/05 11:58:29;;;;;;;4.70;2.47;;;;;;;;;;6227980;23;20398;-91
2023/07/05 12:00:58;;;;;;;5.40;2.70;;;;;;;;;;6229256;23;20371;-90
2023/07/05 12:03:25;;;;;;;4.23;3.13;;;;;;;;;;6228825;22;20405;-92
2023/07/05 12:05:55;;;;;;;2.80;2.13;;;;;;;;;;6231393;22;20378;-91
2023/07/05 12:08:25;;;;;;;2.97;1.90;;;;;;;;;;6228649;23;20469;-92
2023/07/05 12:10:55;;;;;;;7.57;2.80;;;;;;;;;;6229516;23;20493;-91
2023/07/05 12:13:24;;;;;;;4.80;2.50;;;;;;;;;;6226842;23;20426;-90
2023/07/05 12:15:50;;;;;;;2.90;1.97;;;;;;;;;;6231743;23;20366;-90
2023/07/05 12:18:17;;;;;;;3.47;2.57;;;;;;;;;;6229667;23;20402;-91
2023/07/05 12:20:43;;;;;;;2.70;2.07;;;;;;;;;;6228220;23;20394;-91
2023/07/05 12:23:13;;;;;;;3.10;2.00;;;;;;;;;;6227958;23;20378;-91
2023/07/05 12:25:39;;;;;;;3.40;1.80;;;;;;;;;;6229138;23;20440;-91
2023/07/05 12:28:15;;;;;;;4.70;2.20;;;;;;;;;;6229994;23;20457;-91
2023/07/05 12:30:41;;;;;;;2.60;1.90;;;;;;;;;;6228779;23;20450;-91
2023/07/05 12:33:18;;;;;;;3.10;2.33;;;;;;;;;;6230234;23;20386;-93
2023/07/05 12:35:44;;;;;;;4.17;2.70;;;;;;;;;;6230185;23;20415;-92
2023/07/05 12:38:16;;;;;;;4.13;2.43;;;;;;;;;;6230452;23;20380;-91
2023/07/05 12:40:43;;;;;;;3.40;2.33;;;;;;;;;;6229515;23;20470;-90
2023/07/05 12:43:09;;;;;;;3.10;2.40;;;;;;;;;;6228043;23;20390;-91
2023/07/05 12:45:39;;;;;;;3.10;1.83;;;;;;;;;;6230054;23;20389;-91
2023/07/05 12:48:20;;;;;;;4.07;2.40;;;;;;;;;;6229198;23;20393;-90
2023/07/05 12:50:46;;;;;;;2.80;1.70;;;;;;;;;;6225535;23;20383;-91
2023/07/05 12:53:14;;;;;;;4.50;2.50;;;;;;;;;;6170882;23;20391;-92
2023/07/05 12:55:40;;;;;;;2.77;2.10;;;;;;;;;;6172177;23;20902;-91
2023/07/05 12:58:06;;;;;;;5.40;1.77;;;;;;;;;;6136835;23;20766;-91
2023/07/05 13:00:33;;;;;;;2.80;1.80;;;;;;;;;;6114247;23;20396;-91
2023/07/05 13:03:02;;;;;;;3.53;2.00;;;;;;;;;;6108909;23;20385;-91
2023/07/05 13:05:28;;;;;;;3.90;2.07;;;;;;;;;;6116795;23;20388;-92
2023/07/05 13:07:54;;;;;;;3.40;2.43;;;;;;;;;;6112073;23;20412;-90
2023/07/05 13:10:20;;;;;;;6.73;2.10;;;;;;;;;;6139875;23;20385;-92
2023/07/05 13:12:48;;;;;;;3.23;2.13;;;;;;;;;;6111009;23;20371;-91
2023/07/05 13:15:14;;;;;;;3.20;2.00;;;;;;;;;;6112240;23;20424;-91
2023/07/05 13:17:40;;;;;;;4.10;1.90;;;;;;;;;;6112710;23;20393;-90
2023/07/05 13:20:10;;;;;;;2.60;1.60;;;;;;;;;;6116219;23;20388;-91
2023/07/05 13:22:37;;;;;;;3.03;2.13;;;;;;;;;;6134252;23;20475;-92
2023/07/05 13:25:05;;;;;;;3.23;2.20;;;;;;;;;;6111715;23;20393;-92
2023/07/05 13:27:32;;;;;;;3.30;2.13;;;;;;;;;;6111755;23;20467;-91
2023/07/05 13:30:18;;;;;;;3.77;2.40;;;;;;;;;;6192533;23;20378;-91
2023/07/05 13:32:45;;;;;;;5.97;2.20;;;;;;;;;;6227694;23;20386;-91
2023/07/05 13:35:12;;;;;;;3.83;2.00;;;;;;;;;;6139476;23;20741;-90
2023/07/05 13:37:41;;;;;;;5.80;2.47;;;;;;;;;;6115241;23;20475;-94
2023/07/05 13:40:09;;;;;;;2.90;2.00;;;;;;;;;;6141829;23;20399;-90
2023/07/05 13:42:38;;;;;;;4.40;1.90;;;;;;;;;;6139487;23;20398;-91
2023/07/05 13:45:05;;;;;;;3.53;2.00;;;;;;;;;;6115400;23;20373;-92
2023/07/05 13:47:30;;;;;;;2.67;1.80;;;;;;;;;;6111254;23;20420;-91
2023/07/05 13:49:58;;;;;;;3.73;2.30;;;;;;;;;;6116879;23;20397;-94
2023/07/05 13:52:24;;;;;;;5.10;2.10;;;;;;;;;;6114420;23;20461;-92
2023/07/05 13:54:52;;;;;;;3.63;2.27;;;;;;;;;;6115769;23;20979;-95
2023/07/05 13:57:18;;;;;;;4.10;2.07;;;;;;;;;;6115978;23;20408;-91
2023/07/05 13:59:44;;;;;;;3.20;2.00;;;;;;;;;;6114751;23;20387;-91
2023/07/05 14:02:30;;;;;;;4.67;1.90;;;;;;;;;;6114613;23;20381;-91
2023/07/05 14:04:56;;;;;;;3.23;2.03;;;;;;;;;;6115012;23;20895;-89
2023/07/05 14:07:22;;;;;;;3.03;1.80;;;;;;;;;;6229418;23;20386;-92
2023/07/05 14:09:49;;;;;;;2.83;1.83;;;;;;;;;;6233146;23;20436;-92
2023/07/05 14:12:15;;;;;;;3.50;1.93;;;;;;;;;;6229462;23;20386;-93
2023/07/05 14:14:42;;;;;;;3.83;2.13;;;;;;;;;;6228891;23;20426;-92
2023/07/05 14:17:18;;;;;;;5.13;2.60;;;;;;;;;;6227100;23;20445;-91
2023/07/05 14:19:45;;;;;;;5.27;2.17;;;;;;;;;;6227282;23;20392;-93
2023/07/05 14:22:12;;;;;;;3.07;1.90;;;;;;;;;;6230001;23;20354;-91
2023/07/05 14:24:39;;;;;;;4.37;2.00;;;;;;;;;;6232968;23;20393;-91
2023/07/05 14:27:09;;;;;;;3.73;2.30;;;;;;;;;;6230369;23;20417;-91
2023/07/05 14:29:35;;;;;;;4.90;2.30;;;;;;;;;;6233029;22;20386;-93
2023/07/05 14:32:01;;;;;;;3.83;2.13;;;;;;;;;;6227419;23;20373;-93
2023/07/05 14:34:28;;;;;;;3.27;2.10;;;;;;;;;;6227312;23;20426;-91
2023/07/05 14:36:54;;;;;;;6.43;1.93;;;;;;;;;;6232050;23;20704;-91
2023/07/05 14:39:20;;;;;;;10.90;3.83;;;;;;;;;;6234096;23;20370;-91
2023/07/05 14:41:46;;;;;;;3.50;1.83;;;;;;;;;;6231495;23;20362;-91
2023/07/05 14:44:12;;;;;;;3.73;2.47;;;;;;;;;;6232619;23;20473;-91
2023/07/05 14:46:39;;;;;;;4.57;2.00;;;;;;;;;;6230069;23;20406;-91
2023/07/05 14:49:05;;;;;;;3.27;1.93;;;;;;;;;;6231710;23;20846;-91
2023/07/05 14:51:31;;;;;;;2.97;2.07;;;;;;;;;;6230640;23;20879;-93